createdAt,value
2022-10-05T00:00:51.433Z,13.72
2022-10-05T00:02:55.770Z,13.74
2022-10-05T00:04:59.341Z,13.71
2022-10-05T00:07:10.762Z,13.62
2022-10-05T00:09:17.968Z,13.53
2022-10-05T00:11:21.285Z,13.44
2022-10-05T00:13:30.279Z,13.43
2022-10-05T00:15:37.068Z,13.39
2022-10-05T00:17:42.485Z,13.31
2022-10-05T00:19:46.558Z,13.28
2022-10-05T00:21:49.889Z,13.33
2022-10-05T00:23:55.000Z,13.40
2022-10-05T00:26:03.806Z,13.39
2022-10-05T00:28:16.905Z,13.39
2022-10-05T00:30:23.251Z,13.41
2022-10-05T00:32:28.149Z,13.35
2022-10-05T00:34:34.850Z,13.33
2022-10-05T00:36:39.376Z,13.24
2022-10-05T00:38:43.839Z,13.21
2022-10-05T00:41:01.725Z,13.19
2022-10-05T00:43:27.804Z,13.20
2022-10-05T00:45:36.411Z,13.27
2022-10-05T00:47:51.034Z,13.30
2022-10-05T00:50:18.995Z,13.21
2022-10-05T00:52:33.402Z,13.24
2022-10-05T00:54:43.421Z,13.27
2022-10-05T00:57:03.688Z,13.20
2022-10-05T00:59:20.262Z,13.17
2022-10-05T01:01:32.946Z,13.20
2022-10-05T01:03:49.087Z,13.07
2022-10-05T01:06:03.644Z,13.12
2022-10-05T01:08:19.895Z,13.14
2022-10-05T01:10:32.453Z,13.15
2022-10-05T01:12:48.424Z,13.13
2022-10-05T01:15:00.240Z,13.31
2022-10-05T01:17:09.545Z,13.35
2022-10-05T01:19:38.472Z,13.44
2022-10-05T01:21:50.216Z,13.45
2022-10-05T01:24:24.003Z,13.49
2022-10-05T01:26:50.534Z,13.52
2022-10-05T01:29:09.953Z,13.53
2022-10-05T01:31:21.757Z,13.08
2022-10-05T01:33:31.783Z,13.57
2022-10-05T01:35:45.542Z,13.59
2022-10-05T01:38:02.164Z,13.59
2022-10-05T01:40:11.089Z,13.41
2022-10-05T01:42:27.378Z,13.49
2022-10-05T01:44:38.671Z,13.27
2022-10-05T01:46:47.043Z,13.28
2022-10-05T01:49:04.470Z,13.18
2022-10-05T01:51:17.329Z,13.22
2022-10-05T01:53:35.200Z,13.25
2022-10-05T01:55:46.294Z,13.10
2022-10-05T01:58:01.794Z,12.58
2022-10-05T02:00:08.970Z,13.02
2022-10-05T02:02:23.518Z,12.85
2022-10-05T02:05:00.225Z,12.77
2022-10-05T02:06:59.291Z,12.70
2022-10-05T02:09:09.564Z,12.77
2022-10-05T02:11:15.113Z,12.78
2022-10-05T02:13:23.127Z,12.79
2022-10-05T02:15:33.735Z,12.79
2022-10-05T02:17:43.663Z,12.77
2022-10-05T02:19:52.911Z,12.80
2022-10-05T02:22:00.763Z,12.89
2022-10-05T02:24:10.036Z,12.90
2022-10-05T02:26:14.494Z,12.94
2022-10-05T02:28:24.605Z,13.00
2022-10-05T02:30:32.586Z,13.05
2022-10-05T02:32:41.135Z,13.02
2022-10-05T02:34:45.183Z,13.08
2022-10-05T02:37:15.676Z,13.15
2022-10-05T02:39:33.924Z,13.09
2022-10-05T02:41:49.245Z,12.99
2022-10-05T02:43:59.909Z,12.81
2022-10-05T02:46:16.921Z,12.69
2022-10-05T02:48:29.695Z,12.58
2022-10-05T02:50:42.262Z,12.54
2022-10-05T02:52:57.308Z,12.49
2022-10-05T02:55:10.451Z,12.47
2022-10-05T02:57:24.752Z,12.39
2022-10-05T02:59:36.673Z,12.42
2022-10-05T03:01:50.728Z,12.39
2022-10-05T03:04:03.483Z,12.29
2022-10-05T03:06:15.544Z,12.30
2022-10-05T03:08:25.896Z,12.15
2022-10-05T03:10:38.078Z,12.31
2022-10-05T03:12:50.783Z,12.23
2022-10-05T03:15:05.017Z,12.28
2022-10-05T03:17:16.988Z,12.30
2022-10-05T03:19:33.490Z,12.31
2022-10-05T03:21:49.626Z,12.33
2022-10-05T03:24:11.813Z,12.33
2022-10-05T03:26:33.347Z,12.30
2022-10-05T03:28:45.416Z,12.29
2022-10-05T03:30:56.178Z,12.37
2022-10-05T03:33:08.965Z,12.45
2022-10-05T03:35:19.180Z,12.42
2022-10-05T03:37:28.168Z,12.27
2022-10-05T03:39:38.099Z,12.39
2022-10-05T03:41:48.324Z,12.43
2022-10-05T03:44:22.775Z,12.56
2022-10-05T03:46:38.863Z,12.50
2022-10-05T03:48:53.502Z,12.58
2022-10-05T03:51:08.035Z,12.61
2022-10-05T03:53:19.304Z,12.66
2022-10-05T03:55:32.233Z,12.67
2022-10-05T03:57:39.872Z,12.68
2022-10-05T03:59:50.299Z,12.74
2022-10-05T04:01:58.787Z,12.77
2022-10-05T04:04:08.442Z,12.68
2022-10-05T04:06:16.580Z,12.69
2022-10-05T04:08:27.615Z,12.54
2022-10-05T04:10:39.343Z,12.51
2022-10-05T04:12:47.147Z,12.52
2022-10-05T04:14:55.930Z,12.40
2022-10-05T04:17:03.669Z,12.44
2022-10-05T04:19:16.026Z,12.42
2022-10-05T04:21:23.981Z,12.38
2022-10-05T04:23:40.090Z,12.33
2022-10-05T04:25:47.221Z,12.27
2022-10-05T04:27:55.946Z,12.21
2022-10-05T04:30:08.618Z,12.20
2022-10-05T04:32:30.466Z,12.26
2022-10-05T04:34:49.793Z,12.27
2022-10-05T04:37:00.949Z,12.28
2022-10-05T04:39:19.933Z,12.25
2022-10-05T04:41:40.287Z,12.25
2022-10-05T04:43:56.552Z,12.26
2022-10-05T04:46:14.650Z,12.24
2022-10-05T04:48:52.746Z,12.27
2022-10-05T04:51:13.116Z,12.36
2022-10-05T04:53:26.558Z,12.31
2022-10-05T04:55:36.981Z,12.37
2022-10-05T04:57:47.172Z,12.44
2022-10-05T05:00:05.695Z,12.46
2022-10-05T05:02:18.231Z,12.40
2022-10-05T05:04:52.028Z,12.40
2022-10-05T05:07:11.977Z,12.36
2022-10-05T05:09:40.619Z,12.40
2022-10-05T05:11:58.581Z,12.41
2022-10-05T05:14:30.371Z,12.52
2022-10-05T05:16:38.595Z,12.49
2022-10-05T05:18:58.674Z,12.48
2022-10-05T05:21:15.175Z,12.47
2022-10-05T05:23:31.552Z,12.53
2022-10-05T05:25:45.237Z,12.48
2022-10-05T05:27:53.160Z,12.49
2022-10-05T05:30:04.232Z,12.40
2022-10-05T05:32:22.168Z,12.50
2022-10-05T05:34:42.833Z,12.54
2022-10-05T05:36:56.607Z,12.52
2022-10-05T05:39:17.711Z,12.53
2022-10-05T05:41:28.463Z,12.54
2022-10-05T05:43:38.061Z,12.57
2022-10-05T05:45:43.444Z,12.56
2022-10-05T05:47:53.815Z,12.65
2022-10-05T05:50:13.767Z,12.66
2022-10-05T05:52:21.181Z,12.63
2022-10-05T05:54:31.660Z,12.64
2022-10-05T05:56:38.427Z,12.65
2022-10-05T05:58:49.806Z,12.60
2022-10-05T06:00:59.368Z,12.62
2022-10-05T06:03:10.610Z,12.60
2022-10-05T06:05:27.019Z,12.61
2022-10-05T06:07:32.643Z,12.61
2022-10-05T06:09:46.330Z,12.61
2022-10-05T06:12:13.614Z,12.68
2022-10-05T06:14:24.417Z,12.64
2022-10-05T06:16:36.022Z,12.66
2022-10-05T06:18:44.495Z,12.67
2022-10-05T06:20:58.782Z,12.68
2022-10-05T06:23:07.219Z,12.77
2022-10-05T06:25:22.474Z,12.74
2022-10-05T06:27:28.060Z,12.69
2022-10-05T06:29:55.295Z,12.82
2022-10-05T06:32:07.353Z,12.80
2022-10-05T06:34:29.018Z,12.86
2022-10-05T06:36:41.675Z,12.90
2022-10-05T06:39:06.218Z,12.94
2022-10-05T06:41:19.379Z,13.01
2022-10-05T06:43:40.373Z,13.05
2022-10-05T06:46:04.678Z,13.03
2022-10-05T06:48:41.873Z,13.08
2022-10-05T06:51:18.673Z,13.02
2022-10-05T06:53:44.954Z,13.20
2022-10-05T06:55:57.141Z,13.22
2022-10-05T06:58:26.361Z,13.25
2022-10-05T07:00:35.900Z,13.27
2022-10-05T07:02:46.190Z,13.34
2022-10-05T07:05:06.346Z,13.42
2022-10-05T07:07:18.482Z,13.40
2022-10-05T07:09:32.856Z,13.47
2022-10-05T07:11:58.396Z,13.51
2022-10-05T07:14:20.881Z,13.52
2022-10-05T07:16:36.183Z,13.55
2022-10-05T07:18:56.454Z,13.62
2022-10-05T07:21:05.122Z,13.61
2022-10-05T07:23:24.056Z,13.64
2022-10-05T07:25:33.870Z,13.64
2022-10-05T07:27:49.486Z,13.61
2022-10-05T07:30:02.341Z,13.65
2022-10-05T07:32:16.698Z,13.67
2022-10-05T07:34:32.094Z,13.64
2022-10-05T07:36:59.705Z,13.69
2022-10-05T07:39:10.110Z,13.71
2022-10-05T07:41:19.348Z,13.75
2022-10-05T07:43:57.520Z,13.72
2022-10-05T07:46:03.845Z,13.84
2022-10-05T07:48:16.252Z,13.88
2022-10-05T07:50:24.931Z,13.86
2022-10-05T07:52:35.215Z,13.86
2022-10-05T07:54:49.310Z,13.74
2022-10-05T07:56:59.944Z,13.95
2022-10-05T07:59:08.038Z,13.94
2022-10-05T08:01:19.256Z,13.96
2022-10-05T08:03:38.172Z,14.05
2022-10-05T08:05:43.485Z,14.04
2022-10-05T08:07:50.478Z,14.05
2022-10-05T08:09:59.499Z,14.04
2022-10-05T08:12:20.972Z,14.02
2022-10-05T08:14:33.665Z,14.04
2022-10-05T08:16:39.689Z,14.08
2022-10-05T08:18:51.341Z,14.02
2022-10-05T08:20:57.643Z,14.23
2022-10-05T08:23:05.543Z,14.22
2022-10-05T08:25:20.229Z,14.20
2022-10-05T08:27:27.720Z,14.22
2022-10-05T08:29:35.531Z,14.20
2022-10-05T08:31:44.094Z,14.26
2022-10-05T08:33:58.582Z,14.27
2022-10-05T08:36:08.492Z,14.34
2022-10-05T08:38:16.577Z,14.30
2022-10-05T08:40:53.428Z,14.40
2022-10-05T08:43:10.897Z,14.46
2022-10-05T08:46:02.211Z,14.49
2022-10-05T08:48:32.785Z,14.51
2022-10-05T08:51:03.551Z,14.61
2022-10-05T08:53:21.469Z,14.62
2022-10-05T08:55:35.810Z,14.69
2022-10-05T08:58:08.752Z,14.78
2022-10-05T09:00:17.484Z,14.82
2022-10-05T09:02:29.255Z,14.92
2022-10-05T09:04:59.829Z,15.04
2022-10-05T09:07:28.368Z,15.08
2022-10-05T09:10:19.746Z,15.14
2022-10-05T09:12:48.707Z,15.23
2022-10-05T09:15:24.856Z,15.32
2022-10-05T09:18:04.547Z,15.40
2022-10-05T09:20:19.265Z,15.38
2022-10-05T09:22:37.890Z,15.45
2022-10-05T09:24:56.599Z,15.43
2022-10-05T09:27:08.725Z,15.41
2022-10-05T09:29:51.361Z,15.48
2022-10-05T09:32:16.667Z,15.45
2022-10-05T09:34:44.619Z,15.46
2022-10-05T09:37:21.574Z,15.57
2022-10-05T09:40:07.669Z,15.71
2022-10-05T09:42:27.638Z,15.78
2022-10-05T09:45:01.914Z,15.99
2022-10-05T09:47:26.002Z,15.95
2022-10-05T09:50:08.862Z,16.18
2022-10-05T09:52:32.504Z,16.39
2022-10-05T09:55:18.859Z,16.54
2022-10-05T09:57:53.340Z,16.65
2022-10-05T10:00:17.566Z,16.83
2022-10-05T10:02:42.923Z,17.21
2022-10-05T10:05:11.820Z,17.34
2022-10-05T10:07:53.181Z,17.19
2022-10-05T10:10:34.340Z,17.14
2022-10-05T10:12:56.926Z,17.18
2022-10-05T10:15:38.938Z,17.29
2022-10-05T10:18:05.053Z,17.36
2022-10-05T10:20:26.791Z,17.39
2022-10-05T10:22:59.751Z,17.46
2022-10-05T10:25:21.273Z,17.67
2022-10-05T10:27:42.529Z,17.70
2022-10-05T10:30:10.237Z,17.70
2022-10-05T10:32:27.563Z,17.79
2022-10-05T10:34:52.455Z,17.61
2022-10-05T10:37:23.319Z,17.96
2022-10-05T10:39:40.679Z,18.27
2022-10-05T10:42:16.065Z,18.26
2022-10-05T10:44:58.828Z,18.10
2022-10-05T10:47:31.427Z,18.09
2022-10-05T10:49:54.211Z,18.20
2022-10-05T10:52:13.697Z,18.60
2022-10-05T10:54:55.646Z,18.99
2022-10-05T10:57:06.224Z,18.96
2022-10-05T10:59:56.464Z,19.14
2022-10-05T11:02:21.051Z,18.88
2022-10-05T11:04:59.246Z,18.56
2022-10-05T11:07:32.890Z,18.84
2022-10-05T11:09:57.297Z,19.44
2022-10-05T11:12:48.874Z,19.35
2022-10-05T11:15:07.799Z,19.41
2022-10-05T11:17:26.143Z,19.36
2022-10-05T11:20:02.863Z,19.60
2022-10-05T11:22:27.686Z,19.73
2022-10-05T11:24:57.299Z,20.03
2022-10-05T11:27:28.268Z,19.98
2022-10-05T11:30:04.127Z,19.92
2022-10-05T11:32:29.899Z,20.13
2022-10-05T11:35:02.064Z,20.33
2022-10-05T11:37:38.264Z,20.54
2022-10-05T11:39:46.049Z,20.73
2022-10-05T11:42:23.467Z,20.88
2022-10-05T11:44:59.806Z,20.86
2022-10-05T11:47:10.062Z,20.88
2022-10-05T11:49:27.854Z,21.05
2022-10-05T11:51:39.429Z,20.97
2022-10-05T11:53:48.647Z,20.94
2022-10-05T11:56:06.071Z,21.13
2022-10-05T11:58:16.942Z,21.50
2022-10-05T12:00:24.209Z,21.66
2022-10-05T12:02:53.195Z,21.70
2022-10-05T12:05:04.456Z,21.60
2022-10-05T12:07:16.040Z,21.70
2022-10-05T12:09:33.331Z,21.94
2022-10-05T12:11:58.474Z,22.05
2022-10-05T12:14:06.740Z,22.04
2022-10-05T12:16:18.195Z,22.11
2022-10-05T12:18:41.326Z,21.99
2022-10-05T12:20:50.359Z,21.93
2022-10-05T12:23:00.624Z,21.87
2022-10-05T12:25:19.138Z,22.03
2022-10-05T12:27:26.838Z,21.95
2022-10-05T12:29:39.434Z,22.11
2022-10-05T12:31:56.624Z,22.22
2022-10-05T12:34:09.617Z,22.25
2022-10-05T12:36:16.135Z,22.29
2022-10-05T12:38:28.417Z,22.34
2022-10-05T12:40:41.022Z,22.40
2022-10-05T12:42:51.202Z,22.61
2022-10-05T12:45:07.689Z,22.59
2022-10-05T12:47:23.752Z,22.45
2022-10-05T12:49:40.312Z,22.42
2022-10-05T12:51:49.930Z,22.04
2022-10-05T12:53:58.512Z,22.30
2022-10-05T12:56:05.752Z,22.35
2022-10-05T12:58:21.620Z,22.39
2022-10-05T13:00:25.092Z,22.35
2022-10-05T13:02:42.205Z,22.40
2022-10-05T13:04:52.362Z,22.05
2022-10-05T13:07:14.751Z,22.14
2022-10-05T13:09:24.217Z,22.35
2022-10-05T13:11:36.314Z,22.15
2022-10-05T13:13:48.959Z,22.18
2022-10-05T13:15:57.598Z,22.32
2022-10-05T13:18:18.150Z,22.45
2022-10-05T13:20:30.685Z,22.46
2022-10-05T13:22:41.055Z,22.46
2022-10-05T13:24:56.713Z,22.44
2022-10-05T13:27:04.127Z,22.53
2022-10-05T13:29:17.672Z,22.47
2022-10-05T13:31:25.584Z,22.30
2022-10-05T13:33:51.281Z,22.28
2022-10-05T13:36:04.445Z,22.34
2022-10-05T13:38:21.814Z,22.52
2022-10-05T13:40:33.375Z,22.58
2022-10-05T13:42:44.796Z,22.55
2022-10-05T13:44:52.075Z,22.44
2022-10-05T13:47:02.228Z,22.42
2022-10-05T13:49:21.167Z,22.40
2022-10-05T13:51:29.422Z,22.54
2022-10-05T13:53:38.882Z,22.85
2022-10-05T13:55:47.581Z,22.58
2022-10-05T13:57:58.781Z,22.48
2022-10-05T14:00:07.086Z,22.27
2022-10-05T14:02:21.692Z,22.30
2022-10-05T14:04:29.639Z,22.42
2022-10-05T14:06:36.374Z,22.49
2022-10-05T14:08:49.591Z,22.46
2022-10-05T14:10:53.763Z,22.59
2022-10-05T14:12:57.219Z,22.68
2022-10-05T14:15:22.207Z,22.77
2022-10-05T14:17:40.794Z,23.04
2022-10-05T14:19:50.951Z,22.97
2022-10-05T14:22:01.037Z,22.87
2022-10-05T14:24:42.504Z,22.60
2022-10-05T14:26:52.463Z,22.69
2022-10-05T14:29:01.985Z,22.62
2022-10-05T14:31:16.408Z,22.64
2022-10-05T14:33:21.969Z,23.02
2022-10-05T14:35:30.338Z,23.25
2022-10-05T14:37:44.227Z,22.90
2022-10-05T14:39:49.827Z,22.95
2022-10-05T14:41:53.181Z,22.82
2022-10-05T14:44:03.082Z,23.02
2022-10-05T14:46:25.407Z,23.15
2022-10-05T14:48:42.235Z,23.05
2022-10-05T14:50:59.452Z,22.89
2022-10-05T14:53:17.462Z,23.13
2022-10-05T14:55:49.789Z,22.71
2022-10-05T14:58:06.565Z,22.58
2022-10-05T15:00:14.352Z,22.46
2022-10-05T15:02:32.775Z,22.57
2022-10-05T15:04:45.302Z,22.71
2022-10-05T15:07:00.645Z,22.57
2022-10-05T15:09:45.533Z,22.58
2022-10-05T15:11:51.922Z,22.64
2022-10-05T15:13:57.404Z,22.82
2022-10-05T15:16:06.218Z,22.95
2022-10-05T15:18:19.579Z,23.01
2022-10-05T15:20:26.266Z,22.91
2022-10-05T15:22:41.232Z,23.06
2022-10-05T15:24:53.155Z,23.02
2022-10-05T15:26:59.525Z,23.23
2022-10-05T15:29:11.206Z,23.12
2022-10-05T15:31:23.608Z,22.80
2022-10-05T15:33:35.502Z,22.62
2022-10-05T15:35:50.127Z,22.71
2022-10-05T15:37:59.701Z,22.34
2022-10-05T15:40:07.762Z,21.99
2022-10-05T15:42:15.172Z,21.88
2022-10-05T15:44:27.673Z,21.87
2022-10-05T15:46:35.715Z,21.79
2022-10-05T15:48:49.443Z,21.67
2022-10-05T15:51:01.277Z,21.54
2022-10-05T15:53:14.788Z,21.49
2022-10-05T15:55:43.222Z,21.43
2022-10-05T15:57:53.275Z,21.45
2022-10-05T16:00:04.136Z,21.32
2022-10-05T16:02:19.796Z,21.43
2022-10-05T16:04:30.626Z,21.29
2022-10-05T16:06:57.841Z,21.37
2022-10-05T16:09:14.229Z,21.32
2022-10-05T16:11:31.022Z,21.32
2022-10-05T16:13:45.390Z,21.22
2022-10-05T16:15:57.429Z,21.02
2022-10-05T16:18:32.218Z,21.16
2022-10-05T16:20:47.159Z,21.09
2022-10-05T16:22:59.349Z,21.19
2022-10-05T16:25:22.372Z,21.18
2022-10-05T16:27:38.911Z,21.26
2022-10-05T16:29:51.601Z,21.26
2022-10-05T16:31:58.572Z,21.20
2022-10-05T16:34:09.406Z,21.26
2022-10-05T16:36:24.739Z,21.35
2022-10-05T16:38:35.305Z,21.35
2022-10-05T16:40:46.199Z,21.41
2022-10-05T16:42:59.621Z,21.38
2022-10-05T16:45:14.925Z,21.20
2022-10-05T16:47:33.480Z,21.10
2022-10-05T16:49:48.303Z,21.17
2022-10-05T16:51:58.995Z,21.26
2022-10-05T16:54:14.079Z,21.29
2022-10-05T16:56:21.825Z,21.30
2022-10-05T16:58:29.676Z,21.14
2022-10-05T17:00:46.487Z,20.99
2022-10-05T17:03:05.788Z,20.93
2022-10-05T17:05:36.531Z,20.84
2022-10-05T17:07:57.031Z,20.75
2022-10-05T17:10:29.244Z,20.71
2022-10-05T17:12:47.801Z,20.65
2022-10-05T17:15:09.808Z,20.70
2022-10-05T17:17:39.365Z,20.72
2022-10-05T17:19:59.976Z,20.40
2022-10-05T17:22:12.449Z,20.31
2022-10-05T17:24:28.934Z,20.12
2022-10-05T17:26:56.462Z,20.03
2022-10-05T17:29:13.679Z,19.92
2022-10-05T17:31:18.774Z,19.92
2022-10-05T17:33:25.832Z,19.91
2022-10-05T17:35:50.703Z,19.81
2022-10-05T17:38:14.309Z,19.82
2022-10-05T17:40:33.785Z,19.44
2022-10-05T17:42:48.669Z,19.39
2022-10-05T17:44:55.031Z,19.22
2022-10-05T17:47:00.105Z,19.29
2022-10-05T17:49:19.562Z,19.17
2022-10-05T17:52:18.499Z,18.82
2022-10-05T17:54:41.435Z,19.16
2022-10-05T17:57:20.288Z,19.18
2022-10-05T17:59:39.726Z,19.20
2022-10-05T18:02:05.001Z,19.06
2022-10-05T18:04:39.220Z,19.15
2022-10-05T18:06:48.048Z,19.27
2022-10-05T18:08:51.960Z,19.23
2022-10-05T18:11:17.079Z,19.16
2022-10-05T18:13:35.635Z,19.11
2022-10-05T18:15:50.163Z,19.20
2022-10-05T18:17:58.041Z,19.13
2022-10-05T18:20:31.378Z,19.15
2022-10-05T18:22:35.020Z,19.25
2022-10-05T18:25:03.772Z,19.27
2022-10-05T18:27:31.798Z,19.16
2022-10-05T18:30:05.494Z,19.09
2022-10-05T18:32:22.271Z,19.18
2022-10-05T18:34:35.890Z,19.17
2022-10-05T18:36:54.555Z,19.11
2022-10-05T18:39:12.545Z,19.15
2022-10-05T18:41:23.615Z,19.15
2022-10-05T18:43:35.643Z,19.13
2022-10-05T18:45:50.295Z,19.06
2022-10-05T18:48:12.130Z,19.19
2022-10-05T18:50:26.796Z,19.22
2022-10-05T18:52:43.929Z,19.01
2022-10-05T18:54:58.438Z,19.20
2022-10-05T18:57:34.270Z,19.23
2022-10-05T18:59:46.391Z,19.27
2022-10-05T19:01:59.446Z,19.28
2022-10-05T19:04:16.909Z,19.35
2022-10-05T19:06:27.367Z,19.33
2022-10-05T19:08:40.186Z,19.31
2022-10-05T19:10:46.673Z,19.09
2022-10-05T19:13:12.007Z,19.06
2022-10-05T19:15:25.347Z,19.02
2022-10-05T19:17:45.618Z,19.01
2022-10-05T19:20:04.228Z,19.07
2022-10-05T19:22:19.693Z,18.78
2022-10-05T19:24:41.656Z,19.09
2022-10-05T19:26:57.347Z,18.94
2022-10-05T19:29:11.555Z,19.13
2022-10-05T19:31:30.574Z,19.19
2022-10-05T19:33:47.295Z,19.10
2022-10-05T19:36:04.070Z,18.95
2022-10-05T19:38:21.102Z,19.05
2022-10-05T19:40:31.516Z,19.10
2022-10-05T19:42:54.182Z,19.14
2022-10-05T19:45:07.043Z,19.14
2022-10-05T19:47:18.568Z,19.16
2022-10-05T19:49:44.662Z,19.12
2022-10-05T19:51:49.992Z,19.11
2022-10-05T19:53:56.937Z,18.94
2022-10-05T19:56:17.007Z,19.02
2022-10-05T19:58:22.836Z,19.07
2022-10-05T20:00:31.225Z,18.97
2022-10-05T20:02:37.518Z,19.10
2022-10-05T20:04:47.478Z,19.06
2022-10-05T20:06:51.161Z,19.06
2022-10-05T20:08:59.827Z,18.98
2022-10-05T20:11:12.392Z,18.98
2022-10-05T20:13:23.368Z,19.06
2022-10-05T20:15:45.976Z,18.99
2022-10-05T20:18:07.740Z,18.95
2022-10-05T20:20:32.098Z,19.06
2022-10-05T20:22:37.977Z,18.84
2022-10-05T20:24:53.438Z,18.76
2022-10-05T20:27:05.541Z,18.94
2022-10-05T20:29:09.866Z,18.79
2022-10-05T20:31:14.453Z,18.82
2022-10-05T20:33:17.879Z,18.69
2022-10-05T20:35:22.962Z,18.58
2022-10-05T20:37:26.821Z,18.71
2022-10-05T20:39:31.246Z,18.65
2022-10-05T20:41:36.410Z,18.70
2022-10-05T20:43:40.440Z,18.78
2022-10-05T20:45:44.226Z,18.76
2022-10-05T20:47:47.737Z,18.71
2022-10-05T20:49:53.166Z,18.75
2022-10-05T20:51:56.539Z,18.75
2022-10-05T20:53:59.844Z,18.68
2022-10-05T20:56:04.585Z,18.76
2022-10-05T20:58:11.034Z,18.71
2022-10-05T21:00:15.258Z,18.77
2022-10-05T21:02:19.876Z,18.72
2022-10-05T21:04:25.475Z,18.74
2022-10-05T21:06:29.439Z,18.75
2022-10-05T21:08:32.776Z,18.74
2022-10-05T21:10:36.882Z,18.80
2022-10-05T21:12:41.051Z,18.82
2022-10-05T21:14:46.955Z,18.79
2022-10-05T21:16:50.322Z,18.85
2022-10-05T21:18:53.689Z,18.84
2022-10-05T21:21:01.987Z,18.76
2022-10-05T21:23:05.569Z,18.74
2022-10-05T21:25:09.866Z,18.77
2022-10-05T21:27:13.197Z,18.80
2022-10-05T21:29:16.626Z,18.87
2022-10-05T21:31:21.581Z,18.88
2022-10-05T21:33:25.308Z,18.87
2022-10-05T21:35:28.943Z,18.89
2022-10-05T21:37:32.276Z,18.88
2022-10-05T21:39:36.511Z,18.88
2022-10-05T21:41:39.816Z,18.88
2022-10-05T21:43:43.495Z,18.85
2022-10-05T21:45:48.016Z,18.88
2022-10-05T21:47:52.895Z,18.81
2022-10-05T21:49:56.401Z,18.85
2022-10-05T21:52:01.933Z,18.93
2022-10-05T21:54:10.196Z,18.95
2022-10-05T21:56:16.778Z,18.90
2022-10-05T21:58:22.646Z,18.93
2022-10-05T22:00:25.994Z,18.71
2022-10-05T22:02:29.320Z,18.88
2022-10-05T22:04:34.072Z,18.95
2022-10-05T22:06:37.681Z,18.90
2022-10-05T22:08:41.641Z,18.90
2022-10-05T22:10:44.962Z,18.94
2022-10-05T22:12:48.372Z,19.00
2022-10-05T22:14:51.702Z,18.87
2022-10-05T22:16:55.298Z,18.51
2022-10-05T22:18:59.183Z,18.12
2022-10-05T22:21:05.028Z,17.66
2022-10-05T22:23:08.393Z,17.30
2022-10-05T22:25:11.771Z,17.16
2022-10-05T22:27:15.738Z,16.98
2022-10-05T22:29:19.714Z,16.68
2022-10-05T22:31:23.179Z,16.50
2022-10-05T22:33:26.482Z,16.52
2022-10-05T22:35:30.093Z,16.47
2022-10-05T22:37:38.180Z,16.34
2022-10-05T22:39:41.888Z,16.09
2022-10-05T22:41:45.647Z,16.05
2022-10-05T22:43:50.726Z,16.03
2022-10-05T22:45:54.382Z,16.01
2022-10-05T22:47:57.915Z,15.98
2022-10-05T22:50:01.241Z,15.94
2022-10-05T22:52:04.766Z,15.99
2022-10-05T22:54:09.445Z,15.97
2022-10-05T22:56:14.368Z,16.02
2022-10-05T22:58:17.764Z,16.06
2022-10-05T23:00:27.614Z,16.12
2022-10-05T23:02:37.178Z,16.20
2022-10-05T23:04:40.596Z,16.27
2022-10-05T23:06:43.919Z,16.40
2022-10-05T23:08:47.859Z,16.48
2022-10-05T23:10:52.661Z,16.17
2022-10-05T23:13:00.738Z,16.38
2022-10-05T23:15:05.776Z,16.32
2022-10-05T23:17:09.061Z,16.30
2022-10-05T23:19:12.905Z,16.27
2022-10-05T23:21:16.959Z,16.40
2022-10-05T23:23:20.509Z,16.28
2022-10-05T23:25:23.784Z,16.41
2022-10-05T23:27:28.720Z,16.51
2022-10-05T23:29:31.970Z,16.48
2022-10-05T23:31:36.869Z,16.50
2022-10-05T23:33:40.239Z,16.53
2022-10-05T23:35:43.544Z,16.46
2022-10-05T23:37:46.816Z,16.48
2022-10-05T23:39:50.106Z,16.34
2022-10-05T23:41:53.492Z,16.26
2022-10-05T23:43:58.195Z,16.22
2022-10-05T23:46:01.911Z,16.29
2022-10-05T23:48:05.387Z,16.09
2022-10-05T23:50:10.339Z,15.97
2022-10-05T23:52:15.554Z,15.73
2022-10-05T23:54:18.867Z,15.72
2022-10-05T23:56:22.197Z,15.76
2022-10-05T23:58:26.080Z,15.43
